Samnorwood, Texas
Current Conditions -  °F | °C
As of 8:53 PM on Wednesday 22 Oct 2014 (Local Time) from KCDS Reporting Station
Haze Haze  
Wind Chill: 63°   Ceiling: 400
Heat Index: 63°   Visibility: 4mi
Dew Point: 61°   Wind: 8mph
Humidity: 93%   Direction: 150°SSE
Pressure: 30.12"   Gusts: NA
Location:  34.8405°N, 100.2049°W
Report Text: KCDS 230153Z AUTO 15007KT 4SM BR OVC004 17/16 A3012 RMK AO2 CIG 003V009 SLP184 T01720161
Loading
Personal Weather Stations






























Interactive Weather Map
Tropical Storm Tracking
New forecast layout! Learn more

10-Day Weather Forecast

Advertisements
Track Severe Weather on mobile